Ibstock, United Kingdom
Current Conditions -  °F | °C
As of 1:20 PM on Tuesday 21 Oct 2014 (Local Time) from EGNX Reporting Station
Rain Showers Rain Showers  
Wind Chill: 11°   Ceiling: Unl
Heat Index: 11°   Visibility: 6mi
Dew Point:   Wind: 21mph
Humidity: 71%   Direction: 280°W
Pressure: 29.65"   Gusts: NA
Location:  52.69°N, 1.4°W
Report Text: EGNX 211220Z 28018KT 260V320 9999 VCSH FEW026 SCT032 11/06 Q1004 RESHRA
Loading
Personal Weather Stations






























Interactive Weather Map
Tropical Storm Tracking
New forecast layout! Learn more

10-Day Weather Forecast

Advertisements
Track Severe Weather on mobile